createdAt,value
2018-08-20T00:00:17.156Z,101166.63
2018-08-20T00:05:25.971Z,101164.29
2018-08-20T00:10:34.993Z,101164.16
2018-08-20T00:15:43.863Z,101170.13
2018-08-20T00:20:52.987Z,101171.69
2018-08-20T00:26:02.039Z,101170.63
2018-08-20T00:31:11.229Z,101172.70
2018-08-20T00:36:20.198Z,101174.11
2018-08-20T00:41:29.188Z,101177.77
2018-08-20T00:46:38.455Z,101190.83
2018-08-20T00:51:47.723Z,101187.36
2018-08-20T00:56:56.440Z,101186.00
2018-08-20T01:02:05.840Z,101188.75
2018-08-20T01:07:14.991Z,101186.47
2018-08-20T01:12:24.270Z,101187.59
2018-08-20T01:17:33.323Z,101189.77
2018-08-20T01:22:42.167Z,101193.88
2018-08-20T01:27:51.156Z,101196.91
2018-08-20T01:33:00.964Z,101198.12
2018-08-20T01:38:09.912Z,101194.58
2018-08-20T01:43:19.083Z,101198.11
2018-08-20T01:48:27.805Z,101201.41
2018-08-20T01:53:37.112Z,101205.67
2018-08-20T01:58:46.268Z,101204.79
2018-08-20T02:03:55.175Z,101204.34
2018-08-20T02:09:05.549Z,101197.95
2018-08-20T02:14:15.044Z,101203.28
2018-08-20T02:19:23.835Z,101206.17
2018-08-20T02:24:33.336Z,101205.67
2018-08-20T02:29:42.147Z,101196.80
2018-08-20T02:34:51.412Z,101194.25
2018-08-20T02:40:00.467Z,101190.08
2018-08-20T02:45:11.616Z,101191.67
2018-08-20T02:50:21.274Z,101179.33
2018-08-20T02:55:30.428Z,101179.70
2018-08-20T03:00:39.273Z,101185.44
2018-08-20T03:05:48.714Z,101176.45
2018-08-20T03:10:58.276Z,101182.89
2018-08-20T03:16:08.494Z,101184.81
2018-08-20T03:21:17.001Z,101179.86
2018-08-20T03:26:26.638Z,101176.11
2018-08-20T03:31:35.456Z,101180.84
2018-08-20T03:36:44.267Z,101182.42
2018-08-20T03:41:53.245Z,101177.59
2018-08-20T03:47:02.580Z,101177.80
2018-08-20T03:52:11.422Z,101185.10
2018-08-20T03:57:20.847Z,101179.88
2018-08-20T04:02:29.933Z,101178.41
2018-08-20T04:07:39.056Z,101171.80
2018-08-20T04:12:48.532Z,101171.45
2018-08-20T04:17:59.447Z,101175.55
2018-08-20T04:23:09.025Z,101168.69
2018-08-20T04:28:17.829Z,101178.94
2018-08-20T04:33:27.393Z,101179.13
2018-08-20T04:38:36.254Z,101185.63
2018-08-20T04:43:45.056Z,101183.41
2018-08-20T04:48:54.002Z,101185.78
2018-08-20T04:54:02.733Z,101189.94
2018-08-20T04:59:11.727Z,101194.75
2018-08-20T05:04:20.567Z,101202.27
2018-08-20T05:09:29.755Z,101208.14
2018-08-20T05:14:38.791Z,101206.42
2018-08-20T05:19:47.978Z,101206.33
2018-08-20T05:24:57.085Z,101207.33
2018-08-20T05:30:06.803Z,101214.52
2018-08-20T05:35:15.892Z,101222.51
2018-08-20T05:40:25.602Z,101229.72
2018-08-20T05:45:36.245Z,101232.61
2018-08-20T05:50:45.830Z,101232.17
2018-08-20T05:55:55.418Z,101225.40
2018-08-20T06:01:05.014Z,101243.91
2018-08-20T06:06:14.477Z,101240.15
2018-08-20T06:11:23.391Z,101243.16
2018-08-20T06:16:33.204Z,101252.75
2018-08-20T06:21:42.692Z,101263.81
2018-08-20T06:26:51.449Z,101264.03
2018-08-20T06:32:01.492Z,101265.49
2018-08-20T06:37:10.565Z,101260.67
2018-08-20T06:42:19.206Z,101256.43
2018-08-20T06:47:28.418Z,101261.83
2018-08-20T06:52:39.128Z,101259.33
2018-08-20T06:57:48.582Z,101260.08
2018-08-20T07:02:57.946Z,101256.52
2018-08-20T07:08:07.341Z,101258.34
2018-08-20T07:13:29.775Z,101264.05
2018-08-20T07:18:38.620Z,101259.12
2018-08-20T07:23:48.044Z,101267.01
2018-08-20T07:28:56.773Z,101268.83
2018-08-20T07:34:05.971Z,101270.24
2018-08-20T07:39:14.991Z,101283.88
2018-08-20T07:44:24.278Z,101291.91
2018-08-20T07:49:33.853Z,101302.42
2018-08-20T07:54:42.895Z,101309.08
2018-08-20T07:59:51.975Z,101310.98
2018-08-20T08:05:00.822Z,101312.15
2018-08-20T08:10:11.795Z,101321.24
2018-08-20T08:15:21.154Z,101318.34
2018-08-20T08:20:30.679Z,101324.47
2018-08-20T08:25:39.809Z,101318.11
2018-08-20T08:30:48.902Z,101319.25
2018-08-20T08:35:58.819Z,101323.64
2018-08-20T08:41:08.271Z,101320.11
2018-08-20T08:46:17.307Z,101330.33
2018-08-20T08:51:26.597Z,101326.72
2018-08-20T08:56:35.787Z,101318.53
2018-08-20T09:01:45.283Z,101329.11
2018-08-20T09:06:54.087Z,101316.33
2018-08-20T09:12:03.824Z,101311.08
2018-08-20T09:17:13.320Z,101302.24
2018-08-20T09:22:22.620Z,101305.77
2018-08-20T09:27:31.461Z,101302.68
2018-08-20T09:32:40.555Z,101303.12
2018-08-20T09:37:49.671Z,101307.48
2018-08-20T09:42:59.007Z,101306.73
2018-08-20T09:48:08.009Z,101310.28
2018-08-20T09:53:17.249Z,101310.81
2018-08-20T09:58:26.556Z,101320.20
2018-08-20T10:03:36.278Z,101317.14
2018-08-20T10:08:45.970Z,101313.17
2018-08-20T10:13:55.248Z,101307.14
2018-08-20T10:19:03.975Z,101312.53
2018-08-20T10:24:13.488Z,101316.67
2018-08-20T10:29:22.656Z,101314.66
2018-08-20T10:34:32.079Z,101309.52
2018-08-20T10:39:41.338Z,101306.92
2018-08-20T10:44:50.190Z,101315.02
2018-08-20T10:49:59.579Z,101319.83
2018-08-20T10:55:08.916Z,101321.48
2018-08-20T11:00:17.989Z,101325.22
2018-08-20T11:05:27.525Z,101319.87
2018-08-20T11:10:36.600Z,101326.48
2018-08-20T11:15:45.786Z,101323.51
2018-08-20T11:20:54.642Z,101331.22
2018-08-20T11:26:04.366Z,101333.30
2018-08-20T11:31:13.973Z,101346.28
2018-08-20T11:36:23.466Z,101340.99
2018-08-20T11:41:32.811Z,101341.00
2018-08-20T11:46:42.359Z,101336.97
2018-08-20T11:51:52.156Z,101342.17
2018-08-20T11:57:02.026Z,101333.03
2018-08-20T12:02:11.076Z,101343.28
2018-08-20T12:07:20.396Z,101327.11
2018-08-20T12:12:30.365Z,101314.33
2018-08-20T12:17:39.546Z,101325.52
2018-08-20T12:22:48.386Z,101317.52
2018-08-20T12:27:58.072Z,101327.16
2018-08-20T12:33:07.704Z,101327.88
2018-08-20T12:38:16.876Z,101339.81
2018-08-20T12:43:26.582Z,101337.91
2018-08-20T12:48:35.788Z,101335.17
2018-08-20T12:53:44.830Z,101327.28
2018-08-20T12:58:54.121Z,101329.41
2018-08-20T13:04:03.629Z,101333.09
2018-08-20T13:09:12.933Z,101354.31
2018-08-20T13:14:22.132Z,101353.39
2018-08-20T13:19:31.147Z,101350.66
2018-08-20T13:24:40.308Z,101354.69
2018-08-20T13:29:49.660Z,101361.26
2018-08-20T13:34:58.914Z,101355.39
2018-08-20T13:40:07.847Z,101352.08
2018-08-20T13:45:16.764Z,101345.17
2018-08-20T13:50:28.530Z,101350.86
2018-08-20T13:55:37.865Z,101353.13
2018-08-20T14:00:47.009Z,101340.47
2018-08-20T14:05:56.075Z,101351.45
2018-08-20T14:11:05.299Z,101345.00
2018-08-20T14:16:14.230Z,101340.24
2018-08-20T14:21:24.100Z,101340.41
2018-08-20T14:26:33.337Z,101335.27
2018-08-20T14:31:42.305Z,101333.78
2018-08-20T14:36:51.726Z,101328.30
2018-08-20T14:42:00.869Z,101324.80
2018-08-20T14:47:10.094Z,101325.20
2018-08-20T14:52:19.291Z,101323.75
2018-08-20T14:57:28.267Z,101322.59
2018-08-20T15:02:37.138Z,101331.00
2018-08-20T15:07:47.072Z,101332.44
2018-08-20T15:13:00.063Z,101327.64
2018-08-20T15:18:09.157Z,101327.26
2018-08-20T15:23:17.983Z,101330.86
2018-08-20T15:28:26.965Z,101340.32
2018-08-20T15:33:35.862Z,101338.16
2018-08-20T15:38:51.611Z,101346.31
2018-08-20T15:44:00.945Z,101345.87
2018-08-20T15:49:12.259Z,101344.20
2018-08-20T15:54:21.323Z,101345.02
2018-08-20T15:59:30.456Z,101352.96
2018-08-20T16:04:40.010Z,101348.25
2018-08-20T16:09:49.215Z,101342.17
2018-08-20T16:14:58.399Z,101342.70
2018-08-20T16:20:08.077Z,101333.27
2018-08-20T16:25:17.695Z,101341.17
2018-08-20T16:30:27.038Z,101344.18
2018-08-20T16:35:36.141Z,101340.47
2018-08-20T16:40:45.231Z,101331.75
2018-08-20T16:45:54.294Z,101337.22
2018-08-20T16:51:03.276Z,101336.69
2018-08-20T16:56:12.185Z,101333.70
2018-08-20T17:01:21.377Z,101337.62
2018-08-20T17:06:41.789Z,101333.28
2018-08-20T17:11:51.037Z,101321.81
2018-08-20T17:17:00.378Z,101335.30
2018-08-20T17:22:09.167Z,101333.94
2018-08-20T17:27:18.155Z,101327.16
2018-08-20T17:32:27.013Z,101325.18
2018-08-20T17:37:36.394Z,101331.04
2018-08-20T17:42:45.630Z,101341.38
2018-08-20T17:47:54.975Z,101342.91
2018-08-20T17:53:04.186Z,101345.50
2018-08-20T17:58:14.598Z,101341.66
2018-08-20T18:03:23.934Z,101343.05
2018-08-20T18:08:32.528Z,101353.83
2018-08-20T18:13:42.571Z,101353.23
2018-08-20T18:18:52.132Z,101352.42
2018-08-20T18:24:01.190Z,101360.08
2018-08-20T18:29:10.618Z,101361.55
2018-08-20T18:34:19.499Z,101358.15
2018-08-20T18:39:29.075Z,101358.98
2018-08-20T18:44:38.545Z,101366.88
2018-08-20T18:49:47.462Z,101376.13
2018-08-20T18:54:57.295Z,101388.16
2018-08-20T19:00:12.182Z,101394.22
2018-08-20T19:05:21.398Z,101401.05
2018-08-20T19:10:31.017Z,101397.83
2018-08-20T19:15:41.017Z,101399.30
2018-08-20T19:20:50.491Z,101408.90
2018-08-20T19:25:59.586Z,101403.70
2018-08-20T19:31:09.154Z,101402.76
2018-08-20T19:36:18.851Z,101398.52
2018-08-20T19:41:28.523Z,101404.44
2018-08-20T19:46:38.083Z,101400.98
2018-08-20T19:51:47.978Z,101404.77
2018-08-20T19:56:57.444Z,101407.91
2018-08-20T20:02:10.654Z,101403.55
2018-08-20T20:07:20.089Z,101398.25
2018-08-20T20:12:29.146Z,101404.33
2018-08-20T20:17:38.658Z,101398.88
2018-08-20T20:22:48.319Z,101407.06
2018-08-20T20:27:57.484Z,101404.65
2018-08-20T20:33:06.816Z,101407.69
2018-08-20T20:38:16.414Z,101406.98
2018-08-20T20:43:26.016Z,101418.20
2018-08-20T20:48:34.755Z,101418.09
2018-08-20T20:53:44.367Z,101422.65
2018-08-20T20:58:53.725Z,101434.72
2018-08-20T21:04:04.475Z,101438.36
2018-08-20T21:09:13.960Z,101443.53
2018-08-20T21:14:22.908Z,101454.41
2018-08-20T21:19:34.444Z,101449.42
2018-08-20T21:24:43.072Z,101458.55
2018-08-20T21:29:55.162Z,101455.96
2018-08-20T21:35:04.137Z,101468.13
2018-08-20T21:40:13.381Z,101469.55
2018-08-20T21:45:22.441Z,101476.30
2018-08-20T21:50:31.921Z,101482.17
2018-08-20T21:55:41.107Z,101493.27
2018-08-20T22:00:50.602Z,101496.72
2018-08-20T22:05:59.327Z,101499.82
2018-08-20T22:11:08.809Z,101501.44
2018-08-20T22:16:18.346Z,101508.32
2018-08-20T22:21:27.280Z,101499.03
2018-08-20T22:26:39.655Z,101503.20
2018-08-20T22:31:48.947Z,101507.75
2018-08-20T22:36:58.116Z,101513.85
2018-08-20T22:42:07.481Z,101519.28
2018-08-20T22:47:16.410Z,101523.92
2018-08-20T22:52:25.543Z,101530.12
2018-08-20T22:57:34.745Z,101535.13
2018-08-20T23:02:43.833Z,101527.52
2018-08-20T23:07:53.826Z,101531.34
2018-08-20T23:13:02.569Z,101533.00
2018-08-20T23:18:12.231Z,101535.49
2018-08-20T23:23:21.555Z,101540.06
2018-08-20T23:28:30.387Z,101539.59
2018-08-20T23:33:39.866Z,101539.75
2018-08-20T23:38:48.825Z,101546.41
2018-08-20T23:43:57.921Z,101553.60
2018-08-20T23:49:06.830Z,101560.80
2018-08-20T23:54:16.292Z,101563.98
2018-08-20T23:59:25.585Z,101563.77
